Time;durP1;ratioP1;P1;durP2;ratioP2;P2;SDS_P1;SDS_P2;PMS_P1;PMS_P2;Temp;Humidity;BMP_temperature;BMP_pressure;BME280_temperature;BME280_humidity;BME280_pressure;Samples;Min_cycle;Max_cycle;Signal;HPM_P1;HPM_P2
2022/10/14 00:02:44;;;;;;;0.50;0.30;;;;;;;19.44;45.68;101435.38;16122918;19;130260;-39
2022/10/14 00:08:07;;;;;;;0.60;0.40;;;;;;;19.42;45.89;101420.88;16121625;19;130490;-39
2022/10/14 00:13:29;;;;;;;1.08;0.43;;;;;;;19.38;45.79;101409.41;16121215;19;132685;-38
2022/10/14 00:18:51;;;;;;;0.75;0.47;;;;;;;19.37;45.70;101405.78;16121926;19;129677;-39
2022/10/14 00:24:14;;;;;;;0.70;0.57;;;;;;;19.37;45.87;101403.00;16122406;19;129128;-38
2022/10/14 00:29:36;;;;;;;0.73;0.40;;;;;;;19.35;45.56;101396.84;16120588;19;131073;-38
2022/10/14 00:34:58;;;;;;;0.50;0.43;;;;;;;19.34;45.58;101394.31;16120190;19;129583;-39
2022/10/14 00:40:19;;;;;;;0.25;0.25;;;;;;;19.32;45.80;101389.00;16117415;19;129759;-38
2022/10/14 00:45:41;;;;;;;0.70;0.40;;;;;;;19.31;45.54;101390.13;16120680;19;130364;-39
2022/10/14 00:51:03;;;;;;;0.25;0.25;;;;;;;19.30;45.79;101380.09;16119512;19;129657;-39
2022/10/14 00:56:28;;;;;;;0.80;0.47;;;;;;;19.29;45.50;101364.53;16119179;19;130067;-39
2022/10/14 01:01:50;;;;;;;0.43;0.30;;;;;;;19.28;45.79;101353.66;16119812;19;130762;-38
2022/10/14 01:07:25;;;;;;;0.63;0.47;;;;;;;19.30;45.68;101359.81;16118810;19;130446;-40
2022/10/14 01:13:16;;;;;;;0.30;0.30;;;;;;;19.27;45.82;101358.38;16115520;19;128922;-39
2022/10/14 01:18:41;;;;;;;0.30;0.30;;;;;;;19.25;45.68;101357.78;16118457;19;129196;-38
2022/10/14 01:24:04;;;;;;;0.40;0.23;;;;;;;19.24;45.82;101352.47;16131385;19;129816;-39
2022/10/14 01:29:56;;;;;;;0.40;0.40;;;;;;;19.22;45.45;101350.78;16132223;19;129669;-39
2022/10/14 01:35:33;;;;;;;0.30;0.20;;;;;;;19.22;45.96;101344.38;16130246;19;130267;-39
2022/10/14 01:41:05;;;;;;;0.90;0.43;;;;;;;19.21;45.65;101342.69;16131172;19;129567;-39
2022/10/14 01:46:28;;;;;;;0.65;0.35;;;;;;;19.19;45.78;101339.28;16127552;19;129271;-39
2022/10/14 01:51:58;;;;;;;0.30;0.30;;;;;;;19.18;45.95;101337.59;16129772;19;129526;-39
2022/10/14 01:57:25;;;;;;;0.45;0.13;;;;;;;19.18;45.75;101338.44;16128329;19;130978;-39
2022/10/14 02:02:47;;;;;;;0.40;0.30;;;;;;;19.18;46.00;101326.50;16130547;19;130320;-39
2022/10/14 02:08:16;;;;;;;0.68;0.30;;;;;;;19.16;45.55;101321.19;16128554;19;130681;-39
2022/10/14 02:13:53;;;;;;;0.30;0.30;;;;;;;19.16;45.71;101329.50;16129342;19;129567;-38
2022/10/14 02:19:27;;;;;;;0.38;0.30;;;;;;;19.14;45.74;101322.53;16127528;19;129856;-39
2022/10/14 02:24:56;;;;;;;0.45;0.20;;;;;;;19.14;45.81;101311.44;16123232;19;130633;-39
2022/10/14 02:30:19;;;;;;;0.65;0.40;;;;;;;19.12;45.83;101299.72;16129564;19;130278;-39
2022/10/14 02:35:42;;;;;;;0.22;0.20;;;;;;;19.12;45.81;101288.63;16126224;19;129963;-39
2022/10/14 02:41:07;;;;;;;0.60;0.30;;;;;;;19.11;45.82;101276.72;16127923;19;129725;-39
2022/10/14 02:46:29;;;;;;;0.38;0.25;;;;;;;19.11;45.51;101275.84;16127638;19;129540;-39
2022/10/14 02:51:51;;;;;;;0.30;0.30;;;;;;;19.10;45.93;101269.47;16128086;19;129768;-38
2022/10/14 02:57:12;;;;;;;0.25;0.25;;;;;;;19.08;45.56;101255.81;16125750;19;129077;-39
2022/10/14 03:02:34;;;;;;;0.20;0.20;;;;;;;19.08;45.99;101250.28;16126993;19;134350;-38
2022/10/14 03:07:56;;;;;;;0.68;0.40;;;;;;;19.07;45.85;101240.31;16126520;19;129588;-38
2022/10/14 03:13:18;;;;;;;0.50;0.30;;;;;;;19.07;45.53;101242.22;16126018;19;130600;-39
2022/10/14 03:18:39;;;;;;;0.65;0.30;;;;;;;19.06;45.54;101233.06;16124859;19;131076;-38
2022/10/14 03:24:01;;;;;;;0.70;0.38;;;;;;;19.06;46.00;101233.06;16125646;19;129660;-38
2022/10/14 03:29:23;;;;;;;0.40;0.28;;;;;;;19.05;45.83;101228.59;16123160;19;129330;-38
2022/10/14 03:34:45;;;;;;;0.30;0.22;;;;;;;19.04;45.72;101231.59;16125821;19;129371;-39
2022/10/14 03:40:07;;;;;;;0.63;0.38;;;;;;;19.04;45.51;101226.91;16121732;19;130517;-39
2022/10/14 03:45:29;;;;;;;0.30;0.20;;;;;;;19.03;45.97;101225.22;16122364;19;129183;-39
2022/10/14 03:50:50;;;;;;;0.20;0.20;;;;;;;19.03;45.52;101213.28;16122906;19;129860;-38
2022/10/14 03:56:12;;;;;;;0.20;0.17;;;;;;;19.02;45.71;101211.59;16122881;19;129228;-38
2022/10/14 04:01:34;;;;;;;0.20;0.20;;;;;;;19.01;45.54;101213.53;16123732;19;134022;-39
2022/10/14 04:06:56;;;;;;;0.22;0.22;;;;;;;19.01;45.50;101213.53;16122519;19;129701;-38
2022/10/14 04:12:18;;;;;;;0.52;0.30;;;;;;;19.00;45.80;101208.22;16120980;19;131798;-39
2022/10/14 04:17:40;;;;;;;0.35;0.20;;;;;;;19.00;45.97;101206.28;16122051;19;129913;-39
2022/10/14 04:23:02;;;;;;;0.30;0.20;;;;;;;19.00;45.71;101208.22;16121570;19;129749;-39
2022/10/14 04:28:24;;;;;;;0.40;0.10;;;;;;;18.99;45.67;101201.00;16119254;19;129240;-39
2022/10/14 04:33:45;;;;;;;0.20;0.20;;;;;;;18.98;45.94;101202.91;16120416;19;130564;-38
2022/10/14 04:39:07;;;;;;;0.63;0.30;;;;;;;18.98;45.94;101189.03;16119179;19;129966;-39
2022/10/14 04:44:29;;;;;;;0.20;0.20;;;;;;;18.97;45.52;101192.91;16117484;19;128918;-39
2022/10/14 04:49:50;;;;;;;0.20;0.20;;;;;;;18.97;46.01;101190.13;16118660;19;129169;-38
2022/10/14 04:55:12;;;;;;;0.15;0.15;;;;;;;18.97;45.98;101178.22;16123195;19;129682;-38
2022/10/14 05:00:34;;;;;;;0.50;0.15;;;;;;;18.95;45.50;101175.69;16132958;19;129541;-39
2022/10/14 05:05:55;;;;;;;0.20;0.20;;;;;;;;;;16134093;19;129046;-39
2022/10/14 05:11:17;;;;;;;0.10;0.10;;;;;;;18.93;45.67;101169.53;16132011;19;129303;-38
2022/10/14 05:16:39;;;;;;;0.30;0.30;;;;;;;18.97;45.79;101165.19;16133312;19;129420;-39
2022/10/14 05:22:00;;;;;;;0.32;0.20;;;;;;;19.02;45.92;101162.53;16132600;19;128928;-38
2022/10/14 05:27:22;;;;;;;0.10;0.10;;;;;;;19.06;45.72;101152.66;16129202;19;130552;-38
2022/10/14 05:32:44;;;;;;;1.70;0.20;;;;;;;19.06;45.47;101141.56;16131088;19;129871;-39
2022/10/14 05:38:05;;;;;;;1.42;0.17;;;;;;;19.06;45.80;101130.47;16129280;19;130990;-39
2022/10/14 05:43:27;;;;;;;0.30;0.20;;;;;;;19.07;45.74;101131.28;16128414;19;129903;-38
2022/10/14 05:48:53;;;;;;;;;;;;;;;19.04;45.83;101127.09;16130150;19;129723;-38
2022/10/14 05:54:14;;;;;;;0.50;0.20;;;;;;;19.06;45.81;101130.47;16129491;19;130031;-39
2022/10/14 05:59:36;;;;;;;0.75;0.30;;;;;;;19.06;45.88;101124.06;16128661;19;129753;-39
2022/10/14 06:04:58;;;;;;;0.38;0.30;;;;;;;19.05;45.81;101123.22;16128447;19;129956;-38
2022/10/14 06:10:20;;;;;;;0.30;0.20;;;;;;;19.05;45.39;101119.59;16127399;19;130747;-39
2022/10/14 06:15:41;;;;;;;0.45;0.20;;;;;;;19.04;45.39;101107.69;16128802;19;130708;-39
2022/10/14 06:21:04;;;;;;;0.22;0.20;;;;;;;19.03;45.37;101102.38;16131575;19;129587;-39
2022/10/14 06:26:26;;;;;;;0.30;0.20;;;;;;;19.03;45.78;101107.91;16126299;19;129332;-39
2022/10/14 06:31:48;;;;;;;0.25;0.25;;;;;;;19.01;45.43;101099.84;16127797;19;129338;-38
2022/10/14 06:37:09;;;;;;;0.32;0.20;;;;;;;19.00;45.90;101102.88;16127614;19;129116;-39
2022/10/14 06:42:32;;;;;;;0.80;0.20;;;;;;;18.97;45.45;101098.63;16127837;19;131282;-39
2022/10/14 06:47:55;;;;;;;0.30;0.20;;;;;;;18.98;45.93;101093.94;16129266;19;131370;-38
2022/10/14 06:53:17;;;;;;;1.00;0.20;;;;;;;18.97;45.99;101092.25;16128019;19;129483;-38
2022/10/14 06:58:39;;;;;;;1.88;0.40;;;;;;;18.96;45.67;101080.31;16127775;19;130765;-38
2022/10/14 07:04:03;;;;;;;0.75;0.40;;;;;;;18.95;45.99;101094.44;16126226;19;129012;-38
2022/10/14 07:09:24;;;;;;;1.70;0.20;;;;;;;18.95;45.93;101080.56;16123698;19;129616;-39
2022/10/14 07:14:47;;;;;;;0.82;0.35;;;;;;;18.93;46.10;101086.38;16124841;19;129066;-39
2022/10/14 07:20:11;;;;;;;0.20;0.20;;;;;;;18.92;46.11;101085.50;16124703;19;130665;-38
2022/10/14 07:25:32;;;;;;;0.47;0.30;;;;;;;18.93;45.84;101083.59;16125515;19;130229;-38
2022/10/14 07:31:02;;;;;;;0.30;0.30;;;;;;;18.94;45.67;101085.28;16125856;19;131413;-39
2022/10/14 07:36:24;;;;;;;3.45;0.40;;;;;;;18.92;45.69;101077.19;16122459;19;130694;-39
2022/10/14 07:41:45;;;;;;;0.65;0.30;;;;;;;18.94;45.93;101087.19;16124800;19;129681;-39
2022/10/14 07:47:07;;;;;;;5.63;0.30;;;;;;;18.93;45.75;101086.38;16123484;19;130220;-39
2022/10/14 07:52:29;;;;;;;1.23;0.52;;;;;;;18.92;45.67;101084.69;16121616;19;130752;-39
2022/10/14 07:57:50;;;;;;;0.70;0.30;;;;;;;18.94;45.66;101076.97;16124548;19;129873;-39
2022/10/14 08:03:12;;;;;;;3.90;0.55;;;;;;;18.95;45.72;101073.13;16120143;19;129286;-39
2022/10/14 08:08:34;;;;;;;3.65;0.50;;;;;;;18.95;45.82;101072.25;16120292;19;129499;-39
2022/10/14 08:13:57;;;;;;;2.00;0.60;;;;;;;18.96;45.82;101076.72;16119869;19;129368;-40
2022/10/14 08:19:19;;;;;;;2.45;0.50;;;;;;;18.94;46.29;101076.97;16119862;19;129694;-39
2022/10/14 08:24:41;;;;;;;3.28;0.93;;;;;;;18.94;45.97;101076.97;16120360;19;130305;-42
2022/10/14 08:30:03;;;;;;;4.10;0.68;;;;;;;18.95;46.32;101078.66;16131631;19;129668;-41
2022/10/14 08:35:31;;;;;;;4.63;0.52;;;;;;;18.95;46.29;101072.25;16135265;19;129718;-40
2022/10/14 08:41:13;;;;;;;2.05;0.60;;;;;;;18.96;46.16;101063.69;16135894;19;129388;-40
2022/10/14 08:46:58;;;;;;;1.70;0.32;;;;;;;18.96;46.06;101058.13;16137690;19;130920;-41
2022/10/14 08:52:45;;;;;;;1.48;0.50;;;;;;;18.96;46.07;101058.13;16135567;19;130671;-41
2022/10/14 08:58:37;;;;;;;1.75;0.70;;;;;;;18.97;46.34;101065.38;16135568;19;129525;-42
2022/10/14 09:04:03;;;;;;;1.13;0.63;;;;;;;18.94;46.39;101054.78;16133505;19;133888;-40
2022/10/14 09:09:31;;;;;;;1.02;0.40;;;;;;;18.96;46.44;101052.59;16135674;19;129323;-42
2022/10/14 09:15:16;;;;;;;2.30;0.55;;;;;;;18.96;46.23;101055.38;16135463;19;129436;-42
2022/10/14 09:20:40;;;;;;;4.18;0.55;;;;;;;18.95;45.96;101044.53;16135614;19;129890;-42
2022/10/14 09:26:10;;;;;;;0.50;0.38;;;;;;;18.95;46.25;101045.41;16134614;19;130720;-41
2022/10/14 09:31:32;;;;;;;0.90;0.50;;;;;;;18.95;45.95;101041.75;16133182;19;130921;-40
2022/10/14 09:37:28;;;;;;;2.25;0.38;;;;;;;18.95;46.09;101034.31;16132468;19;129558;-40
2022/10/14 09:42:56;;;;;;;1.15;0.40;;;;;;;18.94;46.23;101038.16;16131003;19;129752;-40
2022/10/14 09:48:28;;;;;;;3.22;0.60;;;;;;;18.96;46.29;101040.69;16134410;19;129489;-40
2022/10/14 09:53:53;;;;;;;0.50;0.43;;;;;;;18.96;46.33;101029.59;16134969;19;130818;-41
2022/10/14 09:59:20;;;;;;;0.40;0.30;;;;;;;18.96;46.45;101032.34;16134721;19;132876;-41
2022/10/14 10:04:45;;;;;;;1.23;0.50;;;;;;;18.96;46.00;101022.09;16131373;19;129597;-44
2022/10/14 10:10:20;;;;;;;1.45;0.45;;;;;;;18.98;46.16;101021.88;16125903;19;130073;-40
2022/10/14 10:15:56;;;;;;;0.63;0.40;;;;;;;18.97;46.46;101021.00;16128086;19;129407;-41
2022/10/14 10:21:26;;;;;;;1.10;0.40;;;;;;;18.97;46.20;101023.78;16129980;19;129357;-40
2022/10/14 10:26:49;;;;;;;1.27;0.50;;;;;;;18.97;46.31;101021.00;16128658;19;129390;-40
2022/10/14 10:32:18;;;;;;;1.83;0.55;;;;;;;18.98;46.50;101024.63;16126141;19;129259;-41
2022/10/14 10:38:21;;;;;;;1.60;0.63;;;;;;;18.98;46.10;101016.31;16130091;19;129894;-41
2022/10/14 10:43:56;;;;;;;4.15;0.40;;;;;;;19.00;46.19;101019.69;16128631;19;129330;-40
2022/10/14 10:49:37;;;;;;;1.27;0.75;;;;;;;18.99;46.13;101024.38;16128048;19;129203;-40
2022/10/14 10:55:43;;;;;;;0.80;0.50;;;;;;;18.98;46.68;101027.41;16128328;19;130434;-40
2022/10/14 11:01:36;;;;;;;2.63;0.40;;;;;;;18.98;46.64;101019.91;16125858;19;129432;-40
2022/10/14 11:13:04;;;;;;;1.75;0.40;;;;;;;18.98;46.39;101006.06;16129403;19;129256;-39
2022/10/14 11:18:47;;;;;;;1.88;0.50;;;;;;;18.97;46.61;100990.50;16125995;19;129295;-42
2022/10/14 11:24:21;;;;;;;2.03;0.50;;;;;;;18.99;46.50;100985.56;16128703;19;130965;-40
2022/10/14 11:29:48;;;;;;;1.90;0.43;;;;;;;19.00;46.27;100973.38;16127197;19;128893;-40
2022/10/14 11:35:35;;;;;;;0.60;0.40;;;;;;;19.00;46.61;100975.34;16126497;19;129414;-41
2022/10/14 11:40:59;;;;;;;1.55;0.40;;;;;;;18.99;46.31;100963.38;16124062;19;129556;-40
2022/10/14 11:46:28;;;;;;;3.45;0.40;;;;;;;19.01;46.51;100964.00;16124410;19;129552;-42
2022/10/14 11:52:24;;;;;;;2.45;0.30;;;;;;;19.02;46.72;100968.44;16125398;19;130962;-41
2022/10/14 11:57:52;;;;;;;1.47;0.53;;;;;;;19.01;46.72;100943.75;16121294;19;129422;-40
2022/10/14 12:03:39;;;;;;;1.05;0.25;;;;;;;19.03;46.19;100950.72;16122711;19;129769;-42
2022/10/14 12:09:05;;;;;;;1.02;0.50;;;;;;;19.04;46.66;100937.69;16124216;19;129497;-40
2022/10/14 12:14:34;;;;;;;1.25;0.30;;;;;;;19.05;46.58;100929.13;16120838;19;129662;-40
2022/10/14 12:20:00;;;;;;;0.20;0.20;;;;;;;19.05;46.38;100934.69;16123633;19;129847;-42
2022/10/14 12:25:25;;;;;;;0.40;0.30;;;;;;;19.04;46.38;100919.13;16120789;19;129620;-40
2022/10/14 12:30:47;;;;;;;2.17;0.20;;;;;;;19.05;46.48;100929.13;16120098;19;129537;-41
2022/10/14 12:36:31;;;;;;;1.38;0.43;;;;;;;19.05;46.40;100920.81;16121257;19;129463;-40
2022/10/14 12:41:58;;;;;;;0.60;0.25;;;;;;;19.06;46.33;100918.88;16118184;19;130925;-40
2022/10/14 12:47:23;;;;;;;0.40;0.30;;;;;;;19.06;46.26;100914.19;16119972;19;129709;-41
2022/10/14 12:52:54;;;;;;;0.60;0.50;;;;;;;19.06;46.43;100914.19;16121597;19;129287;-41
2022/10/14 12:58:23;;;;;;;1.95;0.25;;;;;;;19.08;46.47;100909.19;16121095;19;129782;-40
2022/10/14 13:03:56;;;;;;;3.40;0.35;;;;;;;19.10;46.70;100910.88;16120897;19;130073;-40
2022/10/14 13:09:31;;;;;;;1.95;0.60;;;;;;;19.11;46.41;100899.56;16118629;19;129891;-39
2022/10/14 13:14:57;;;;;;;1.00;0.30;;;;;;;19.12;46.69;100892.06;16122456;19;130245;-40
2022/10/14 13:20:44;;;;;;;2.58;0.28;;;;;;;19.12;46.34;100889.31;16136550;19;128902;-40
2022/10/14 13:26:12;;;;;;;0.25;0.25;;;;;;;19.10;46.53;100874.84;16135083;19;129558;-42
2022/10/14 13:31:34;;;;;;;4.07;0.63;;;;;;;19.09;46.53;100876.78;16133562;19;129353;-40
2022/10/14 13:37:18;;;;;;;0.43;0.30;;;;;;;19.10;46.46;100872.06;16135973;19;129886;-40
2022/10/14 13:42:40;;;;;;;1.17;0.30;;;;;;;19.07;46.64;100865.09;16135036;19;130243;-41
2022/10/14 13:48:02;;;;;;;0.20;0.10;;;;;;;19.07;46.41;100865.97;16132701;19;129038;-40
2022/10/14 13:53:24;;;;;;;0.17;0.17;;;;;;;19.06;46.37;100869.81;16134988;19;130775;-41
2022/10/14 13:58:46;;;;;;;0.50;0.10;;;;;;;19.07;46.46;100865.97;16134032;19;129934;-40
2022/10/14 14:04:21;;;;;;;1.30;0.20;;;;;;;19.08;46.20;100862.06;16132281;19;130472;-40
2022/10/14 14:09:51;;;;;;;0.93;0.20;;;;;;;19.08;46.37;100866.78;16133312;19;129385;-41
2022/10/14 14:15:39;;;;;;;0.47;0.20;;;;;;;19.07;46.66;100863.19;16130567;19;129739;-40
2022/10/14 14:21:01;;;;;;;0.20;0.15;;;;;;;19.06;46.34;100868.97;16128214;19;129634;-40
2022/10/14 14:26:35;;;;;;;0.20;0.20;;;;;;;19.06;46.69;100853.19;16131285;19;129428;-39
2022/10/14 14:31:58;;;;;;;0.20;0.20;;;;;;;19.04;46.70;100847.03;16132312;19;129324;-42
2022/10/14 14:37:31;;;;;;;0.30;0.30;;;;;;;19.04;46.37;100852.59;16129846;19;128771;-41
2022/10/14 14:43:12;;;;;;;0.68;0.45;;;;;;;19.04;46.49;100841.50;16125694;19;128871;-40
2022/10/14 14:48:35;;;;;;;1.95;0.93;;;;;;;19.04;46.40;100830.41;16130635;19;133791;-40
2022/10/14 14:53:57;;;;;;;1.23;0.80;;;;;;;19.03;46.82;100837.03;16128634;19;130169;-39
2022/10/14 14:59:26;;;;;;;0.90;0.60;;;;;;;19.04;46.70;100835.97;16128991;19;133674;-40
2022/10/14 15:05:09;;;;;;;0.98;0.68;;;;;;;19.05;46.80;100834.88;16126958;19;129581;-39
2022/10/14 15:10:31;;;;;;;1.40;0.80;;;;;;;19.03;46.81;100825.94;16129067;19;129456;-39
2022/10/14 15:15:53;;;;;;;4.00;1.17;;;;;;;19.04;46.54;100826.78;16124925;19;130342;-42
2022/10/14 15:21:18;;;;;;;3.13;1.45;;;;;;;19.04;46.61;100826.78;16123066;19;135120;-39
2022/10/14 15:26:40;;;;;;;4.63;2.05;;;;;;;19.03;46.60;100808.47;16126634;19;130747;-40
2022/10/14 15:32:13;;;;;;;4.85;2.10;;;;;;;19.04;46.64;100811.00;16124990;19;129041;-39
2022/10/14 15:37:35;;;;;;;4.00;2.30;;;;;;;19.03;46.35;100812.09;16124636;19;130330;-40
2022/10/14 15:42:57;;;;;;;3.35;2.28;;;;;;;19.03;46.75;100809.31;16122018;19;129712;-40
2022/10/14 15:48:19;;;;;;;4.68;2.30;;;;;;;19.02;46.31;100807.63;16119869;19;130561;-40
2022/10/14 15:53:41;;;;;;;4.55;2.30;;;;;;;19.02;46.57;100791.00;16118856;19;129648;-41
2022/10/14 15:59:03;;;;;;;18.10;5.68;;;;;;;18.99;46.59;100794.28;16119014;19;129663;-40
2022/10/14 16:04:26;;;;;;;48.30;10.75;;;;;;;19.01;47.13;100800.41;16116213;19;130011;-41
2022/10/14 16:09:48;;;;;;;29.42;9.60;;;;;;;19.02;47.08;100802.09;16122281;19;129803;-40
2022/10/14 16:15:15;;;;;;;38.78;11.43;;;;;;;19.03;46.98;100805.69;16120299;19;129532;-40
2022/10/14 16:20:37;;;;;;;56.40;13.93;;;;;;;19.04;47.88;100782.41;16120252;19;130183;-40
2022/10/14 16:25:59;;;;;;;50.60;14.48;;;;;;;19.04;48.35;100802.69;16119525;19;129374;-40
2022/10/14 16:31:21;;;;;;;42.08;12.48;;;;;;;19.07;48.19;100785.56;16119298;19;129652;-40
2022/10/14 16:36:43;;;;;;;43.13;10.65;;;;;;;19.13;48.49;100788.38;16121555;19;129632;-40
2022/10/14 16:42:05;;;;;;;30.20;9.70;;;;;;;19.20;48.06;100777.97;16119632;19;129174;-40
2022/10/14 16:47:27;;;;;;;32.00;9.18;;;;;;;19.27;47.90;100784.22;16119315;19;129648;-40
2022/10/14 16:58:29;;;;;;;27.00;8.95;;;;;;;19.31;47.97;100765.97;16132319;19;129337;-40
2022/10/14 17:03:53;;;;;;;23.75;7.60;;;;;;;19.32;47.79;100775.94;16130513;19;130399;-40
2022/10/14 17:09:17;;;;;;;28.05;7.32;;;;;;;19.32;47.88;100781.50;16133663;19;129423;-41
2022/10/14 17:14:38;;;;;;;23.77;6.70;;;;;;;19.31;47.59;100781.75;16133713;19;129616;-39
2022/10/14 17:20:00;;;;;;;16.13;5.85;;;;;;;19.30;47.74;100775.38;16131591;19;130405;-40
2022/10/14 17:25:22;;;;;;;28.52;6.63;;;;;;;19.29;47.92;100779.25;16130952;19;129079;-40
2022/10/14 17:30:44;;;;;;;26.10;5.82;;;;;;;19.31;47.94;100776.22;16130079;19;129328;-40
2022/10/14 17:36:07;;;;;;;23.60;6.35;;;;;;;19.43;48.01;100778.91;16132936;19;129546;-41
2022/10/14 17:41:29;;;;;;;19.63;6.25;;;;;;;19.58;47.56;100769.94;16124253;19;129633;-39
2022/10/14 17:46:52;;;;;;;34.90;7.20;;;;;;;19.81;47.91;100774.41;16128978;19;129770;-40
2022/10/14 17:52:13;;;;;;;23.85;5.75;;;;;;;19.99;47.38;100770.47;16131230;19;129758;-39
2022/10/14 17:57:36;;;;;;;80.60;9.43;;;;;;;20.10;47.73;100774.22;16129237;19;129522;-39
2022/10/14 18:02:57;;;;;;;24.52;5.55;;;;;;;20.17;47.42;100787.91;16129242;19;129578;-40
2022/10/14 18:08:19;;;;;;;22.52;5.22;;;;;;;20.19;47.39;100786.53;16131075;19;133051;-38
2022/10/14 18:13:42;;;;;;;30.00;4.85;;;;;;;20.20;47.59;100799.31;16129877;19;130389;-39
2022/10/14 18:19:07;;;;;;;45.85;6.47;;;;;;;20.19;47.58;100786.53;16128507;19;130181;-38
2022/10/14 18:24:29;;;;;;;26.63;5.80;;;;;;;20.17;47.79;100785.97;16129299;19;129944;-38
2022/10/14 18:29:51;;;;;;;31.63;6.60;;;;;;;20.16;48.03;100781.53;16126098;19;129798;-38
2022/10/14 18:35:13;;;;;;;43.75;6.18;;;;;;;20.16;47.78;100784.31;16119513;19;130459;-41
2022/10/14 18:40:35;;;;;;;35.45;5.30;;;;;;;20.18;48.27;100776.56;16124133;19;131327;-39
2022/10/14 18:46:13;;;;;;;40.28;5.47;;;;;;;20.19;48.45;100783.75;16122307;19;130145;-39
2022/10/14 18:51:37;;;;;;;28.90;5.53;;;;;;;20.18;48.62;100765.44;16126909;19;130063;-39
2022/10/14 18:56:59;;;;;;;35.72;5.30;;;;;;;20.27;48.53;100761.09;16125543;19;129908;-39
2022/10/14 19:02:21;;;;;;;31.00;4.80;;;;;;;20.39;48.79;100751.75;16121550;19;130037;-41
2022/10/14 19:07:43;;;;;;;19.15;4.50;;;;;;;20.50;48.22;100753.53;16124973;19;129586;-39
2022/10/14 19:13:05;;;;;;;27.73;5.25;;;;;;;20.62;48.25;100744.19;16122655;19;129166;-39
2022/10/14 19:18:27;;;;;;;28.80;4.60;;;;;;;20.69;47.95;100758.69;16125718;19;129590;-40
2022/10/14 19:23:49;;;;;;;22.52;4.00;;;;;;;20.76;48.35;100739.88;16124903;19;129634;-41
2022/10/14 19:29:12;;;;;;;24.48;4.43;;;;;;;20.83;48.19;100748.84;16123995;19;129413;-38
2022/10/14 19:34:34;;;;;;;24.67;4.22;;;;;;;20.85;47.82;100749.41;16123409;19;130734;-39
2022/10/14 19:39:56;;;;;;;35.20;4.88;;;;;;;20.94;48.30;100737.78;16123747;19;129425;-40
2022/10/14 19:45:17;;;;;;;23.42;3.65;;;;;;;20.98;48.24;100733.38;16121620;19;130803;-38
2022/10/14 19:50:40;;;;;;;24.15;4.20;;;;;;;21.02;47.97;100727.00;16127130;19;129585;-43
2022/10/14 19:56:03;;;;;;;27.10;4.00;;;;;;;21.07;48.10;100723.41;16125375;19;129041;-42
2022/10/14 20:01:27;;;;;;;26.40;4.95;;;;;;;21.12;48.17;100720.69;16121815;19;130760;-40
2022/10/14 20:06:49;;;;;;;23.38;3.28;;;;;;;21.15;48.13;100714.59;16123340;19;130407;-38
2022/10/14 20:12:11;;;;;;;32.05;4.20;;;;;;;21.13;47.89;100724.28;16123434;19;129647;-39
2022/10/14 20:17:32;;;;;;;28.67;4.15;;;;;;;21.08;48.05;100722.31;16123370;19;129079;-39
2022/10/14 20:22:54;;;;;;;77.38;5.82;;;;;;;21.03;48.26;100728.69;16124173;19;130041;-39
2022/10/14 20:28:18;;;;;;;27.20;4.00;;;;;;;20.97;48.17;100718.66;16150815;19;129421;-40
2022/10/14 20:33:40;;;;;;;33.67;4.28;;;;;;;20.93;48.79;100723.06;16150564;19;129852;-39
2022/10/14 20:39:02;;;;;;;23.30;3.22;;;;;;;20.88;48.70;100721.09;16150134;19;130934;-40
2022/10/14 20:44:24;;;;;;;24.85;3.92;;;;;;;20.83;48.33;100737.72;16150271;19;129671;-39
2022/10/14 20:49:45;;;;;;;23.65;3.38;;;;;;;20.77;48.49;100736.00;16150057;19;129641;-38
2022/10/14 20:55:07;;;;;;;16.17;3.03;;;;;;;20.71;48.73;100737.88;16149007;19;129756;-39
2022/10/14 21:00:29;;;;;;;13.07;2.60;;;;;;;20.66;48.69;100729.47;16147644;19;129630;-39
2022/10/14 21:05:51;;;;;;;16.95;2.78;;;;;;;20.62;48.74;100733.06;16148747;19;129384;-38
2022/10/14 21:11:14;;;;;;;39.92;4.10;;;;;;;20.56;48.53;100743.28;16145607;19;130178;-38
2022/10/14 21:16:38;;;;;;;22.63;3.55;;;;;;;20.47;48.76;100742.94;16149678;19;130300;-39
2022/10/14 21:22:01;;;;;;;12.35;2.25;;;;;;;20.40;48.59;100750.66;16149985;19;130289;-39
2022/10/14 21:27:23;;;;;;;20.33;2.20;;;;;;;20.34;48.98;100738.66;16146033;19;130089;-39
2022/10/14 21:32:45;;;;;;;13.27;2.17;;;;;;;20.27;48.77;100732.44;16148194;19;129328;-38
2022/10/14 21:38:07;;;;;;;10.30;2.22;;;;;;;20.22;48.71;100741.56;16132178;19;129875;-39
2022/10/14 21:43:30;;;;;;;17.58;2.05;;;;;;;20.17;48.98;100744.31;16130640;19;129475;-39
2022/10/14 21:48:55;;;;;;;9.18;1.67;;;;;;;20.14;48.47;100722.63;16130050;19;129423;-38
2022/10/14 21:54:17;;;;;;;10.73;2.10;;;;;;;20.10;48.74;100711.19;16131570;19;129390;-39
2022/10/14 21:59:39;;;;;;;11.85;1.88;;;;;;;20.06;48.61;100711.97;16131549;19;129330;-39
2022/10/14 22:05:01;;;;;;;8.85;2.08;;;;;;;20.04;48.60;100717.78;16130367;19;129878;-39
2022/10/14 22:10:40;;;;;;;12.38;1.90;;;;;;;20.00;48.78;100716.63;16127809;19;130608;-39
2022/10/14 22:16:02;;;;;;;8.88;2.05;;;;;;;19.98;48.56;100696.59;16129956;19;129526;-39
2022/10/14 22:21:26;;;;;;;6.63;1.63;;;;;;;19.95;48.74;100695.16;16128270;19;130578;-39
2022/10/14 22:26:49;;;;;;;8.13;1.50;;;;;;;19.96;48.47;100704.34;16128889;19;129639;-39
2022/10/14 22:32:11;;;;;;;4.60;1.13;;;;;;;19.93;48.47;100704.84;16127276;19;129144;-38
2022/10/14 22:37:33;;;;;;;5.60;1.30;;;;;;;19.89;48.45;100715.66;16128782;19;130686;-39
2022/10/14 22:42:55;;;;;;;2.92;1.10;;;;;;;19.88;48.42;100713.97;16125831;19;135247;-40
2022/10/14 22:48:17;;;;;;;2.72;1.35;;;;;;;19.86;48.67;100710.59;16128362;19;129303;-39
2022/10/14 22:53:40;;;;;;;5.03;1.45;;;;;;;19.83;48.10;100703.66;16130832;19;131699;-39
2022/10/14 22:59:05;;;;;;;3.20;1.15;;;;;;;19.83;48.16;100694.47;16126103;19;129507;-39
2022/10/14 23:04:26;;;;;;;5.03;1.07;;;;;;;19.80;48.34;100687.50;16126568;19;129850;-39
2022/10/14 23:09:48;;;;;;;4.00;0.95;;;;;;;19.79;48.30;100693.31;16125098;19;129271;-39
2022/10/14 23:15:10;;;;;;;3.17;1.00;;;;;;;19.77;48.28;100689.97;16126850;19;129730;-38
2022/10/14 23:20:33;;;;;;;3.00;1.42;;;;;;;19.76;48.46;100683.56;16125941;19;130260;-39
2022/10/14 23:25:55;;;;;;;2.20;1.00;;;;;;;19.74;48.01;100687.69;16124212;19;130287;-39
2022/10/14 23:31:19;;;;;;;1.83;0.90;;;;;;;19.73;48.09;100689.66;16122934;19;130583;-39
2022/10/14 23:36:41;;;;;;;2.22;0.77;;;;;;;19.71;48.24;100682.66;16123641;19;130354;-39
2022/10/14 23:42:03;;;;;;;2.35;0.70;;;;;;;19.69;48.30;100689.31;16124276;19;129360;-38
2022/10/14 23:47:25;;;;;;;1.65;0.68;;;;;;;19.69;48.03;100688.50;16122477;19;129602;-39
2022/10/14 23:52:46;;;;;;;1.90;0.77;;;;;;;19.67;47.96;100679.56;16123875;19;129510;-39
2022/10/14 23:58:09;;;;;;;2.05;1.00;;;;;;;19.66;48.06;100681.53;16122218;19;130496;-39
